UNNT/OVB METAR and TAF weather

Enter ICAO airport designator
Station Type Date Time Source
UNNT METAR 2021/09/23 18:00 UTC NOAA

UNNT 231800Z 31002MPS 9999 BKN046 00/00 Q1022 R07/090070 R34/////// NOSIG RMK QFE757/1009


Station Type Date Time Source
UNNT Decoded METAR 2021/09/23 18:00 UTC NOAA

Station name not available
Sep 23, 2021 - 02:00 PM EDT / 2021.09.23 1800 UTC
Wind: from the NW (310 degrees) at 4 MPH (4 KT):0
Visibility: greater than 7 mile(s):0
Sky conditions: mostly cloudy
Temperature: 32 F (0 C)
Dew Point: 32 F (0 C)
Relative Humidity: 100%
Pressure (altimeter): 30.18 in. Hg (1022 hPa)
ob: UNNT 231800Z 31002MPS 9999 BKN046 00/00 Q1022 R07/090070 R34/////// NOSIG RMK QFE757/1009
cycle: 18

Station Type Date Time Source
UNNT TAF 2021/09/23 18:28 UTC NOAA

TAF UNNT 231700Z 2318/2418 31003MPS 3000 BR BKN030
TEMPO 2318/2402 0350 -SNRA FG BKN002
BECMG 2402/2404 25005G12MPS 9999 NSW
BECMG 2409/2411 20005G10MPS BKN040

Example: see airport list